Portada
METAR-TAF:

METAR-TAF

Aeropuertos :

El Cairo, Egipto

Aeropuerto Internacional de El Cairo

latitud: 30-08N, longitud: 031-24E, altitud: 64 m

Observación

El informe se hizo hace 29 minutos, a las 19:00 UTC
Viento 10 kt del norte
Temperatura 31°C
Humedad 55%
Presión 1009 hPa
Visibilidad 10 km o más
sin nubes por debajo de 1500 m y sin presencia de cumulonimbus.

METAR: HECA 171900Z 01010KT CAVOK 31/21 Q1009

Hora: 21:29 (19:29 UTC)

Pronóstico

El informe se hizo hace 2 horas y 29 minutos, a las 17:00 UTC
Pronóstico válido del 17 a las 18 UTC al 18 a las 24 UTC
Viento 10 kt del norte
Visibilidad 10 km o más
sin nubes por debajo de 1500 m y sin presencia de cumulonimbus.
Temporalmente
del 18 a las 03 UTC al 18 a las 06 UTC
Viento 3 kt con dirección variable
Visibilidad: 4000 m
neblina

TAF: HECA 171700Z 1718/1824 36010KT CAVOK TEMPO 1803/1806 VRB03KT 4000 BR NSC

Observaciones y pronósticos meteorológicos de más de 4000 aeropuertos (mensajes METAR y TAF).

Los puntos amarillos y rojos representan las estaciones disponibles.

Ponga el ratón en el punto deseado para ver el nombre de la estación.

Haga clic para ver las observaciones y los pronósticos meteorológicos.

Para cambiar el mapa : haga clic en los botones verdes con una cruz de color negro para hacer un zoom, en el botón verde con un guión para alejar o en las flechas verdes para mapas adyacentes.


METAR-TAF: